Time;durP1;ratioP1;P1;durP2;ratioP2;P2;SDS_P1;SDS_P2;PMS_P1;PMS_P2;Temp;Humidity;BMP_temperature;BMP_pressure;BME280_temperature;BME280_humidity;BME280_pressure;Samples;Min_cycle;Max_cycle;Signal;HPM_P1;HPM_P2
2022/03/12 00:01:45;;;;;;;20.27;11.63;;;;;;;11.19;37.42;101183.06;5288957;28;20025;-72
2022/03/12 00:04:16;;;;;;;15.27;10.82;;;;;;;11.28;37.50;101184.94;5285846;28;20052;-72
2022/03/12 00:06:47;;;;;;;14.80;9.85;;;;;;;11.30;37.84;101185.66;5276173;28;20025;-72
2022/03/12 00:09:19;;;;;;;16.83;10.65;;;;;;;11.31;37.25;101187.31;5289535;28;20024;-72
2022/03/12 00:11:51;;;;;;;16.02;10.90;;;;;;;11.30;37.94;101187.44;5288794;28;20016;-72
2022/03/12 00:14:22;;;;;;;13.03;9.87;;;;;;;11.24;38.49;101175.66;5288753;28;20074;-73
2022/03/12 00:16:54;;;;;;;14.15;10.63;;;;;;;11.25;38.69;101200.94;5289577;28;20016;-73
2022/03/12 00:19:25;;;;;;;13.98;11.15;;;;;;;11.28;37.95;101197.22;5287440;28;20421;-73
2022/03/12 00:21:58;;;;;;;13.63;10.65;;;;;;;11.29;38.63;101193.63;5289866;28;20020;-71
2022/03/12 00:24:29;;;;;;;15.83;10.70;;;;;;;11.29;38.14;101196.25;5289078;28;20042;-73
2022/03/12 00:27:01;;;;;;;15.70;10.98;;;;;;;11.28;38.34;101200.66;5286654;28;20397;-73
2022/03/12 00:29:32;;;;;;;14.93;10.75;;;;;;;11.32;38.36;101203.88;5289038;28;20110;-73
2022/03/12 00:32:07;;;;;;;13.07;10.52;;;;;;;11.35;38.37;101203.63;5288587;28;20266;-73
2022/03/12 00:34:38;;;;;;;15.15;10.02;;;;;;;11.35;38.03;101208.88;5286874;28;20031;-73
2022/03/12 00:37:09;;;;;;;12.98;10.52;;;;;;;11.33;38.83;101214.25;5284928;28;20024;-73
2022/03/12 00:39:44;;;;;;;15.88;11.10;;;;;;;11.33;38.37;101208.19;5273301;28;20103;-73
2022/03/12 00:42:15;;;;;;;14.77;10.52;;;;;;;11.35;38.66;101209.69;5289636;28;20044;-72
2022/03/12 00:44:47;;;;;;;14.35;10.55;;;;;;;11.30;40.11;101221.53;5273475;28;20113;-72
2022/03/12 00:47:18;;;;;;;15.48;10.70;;;;;;;11.27;39.58;101214.75;5286370;28;20024;-72
2022/03/12 00:49:50;;;;;;;17.73;12.20;;;;;;;11.27;39.96;101230.50;5288692;28;20031;-71
2022/03/12 00:52:21;;;;;;;14.45;9.98;;;;;;;11.26;40.96;101223.59;5287135;28;20096;-72
2022/03/12 00:54:53;;;;;;;16.42;10.75;;;;;;;11.18;42.50;101228.63;5287359;28;20532;-72
2022/03/12 00:57:24;;;;;;;14.32;10.95;;;;;;;11.15;42.46;101224.44;5287181;28;20033;-72
2022/03/12 00:59:55;;;;;;;15.38;11.23;;;;;;;11.15;42.12;101223.63;5284997;28;20503;-70
2022/03/12 01:02:27;;;;;;;15.10;10.25;;;;;;;11.13;42.13;101226.34;5288589;28;20400;-72
2022/03/12 01:04:58;;;;;;;16.23;11.23;;;;;;;11.15;42.11;101213.13;5288951;28;20063;-72
2022/03/12 01:07:29;;;;;;;15.75;10.77;;;;;;;11.13;42.18;101221.09;5289054;28;20035;-73
2022/03/12 01:10:00;;;;;;;14.27;10.50;;;;;;;11.09;42.79;101217.06;5287151;28;20016;-73
2022/03/12 01:12:32;;;;;;;15.38;11.32;;;;;;;11.11;42.64;101230.06;5273139;28;20074;-72
2022/03/12 01:15:05;;;;;;;16.80;10.80;;;;;;;11.06;43.64;101225.22;5290547;28;20024;-72
2022/03/12 01:17:38;;;;;;;14.60;11.07;;;;;;;11.03;43.81;101224.63;5289233;28;20114;-73
2022/03/12 01:20:10;;;;;;;15.02;11.68;;;;;;;11.06;44.94;101227.84;5274761;28;20016;-73
2022/03/12 01:22:41;;;;;;;15.95;10.75;;;;;;;11.09;44.98;101230.19;5287777;28;20039;-73
2022/03/12 01:25:13;;;;;;;14.38;10.73;;;;;;;10.99;46.36;101231.06;5287309;28;20024;-70
2022/03/12 01:27:44;;;;;;;17.30;11.57;;;;;;;10.99;46.74;101237.16;5286793;28;20512;-72
2022/03/12 01:30:26;;;;;;;15.00;11.00;;;;;;;11.00;48.50;101235.34;5285146;28;20024;-72
2022/03/12 01:32:58;;;;;;;15.38;10.90;;;;;;;10.87;49.29;101241.59;5289479;28;20028;-72
2022/03/12 01:35:29;;;;;;;15.38;11.65;;;;;;;10.79;50.04;101243.13;5287381;28;20477;-72
2022/03/12 01:38:02;;;;;;;15.35;11.52;;;;;;;10.68;51.49;101241.34;5288905;28;20472;-72
2022/03/12 01:40:34;;;;;;;17.13;11.13;;;;;;;10.69;51.44;101240.41;5287087;28;20227;-72
2022/03/12 01:43:06;;;;;;;16.08;11.38;;;;;;;10.57;55.32;101250.06;5289578;28;20039;-72
2022/03/12 01:45:37;;;;;;;17.63;12.45;;;;;;;10.56;54.49;101252.78;5286185;28;20102;-72
2022/03/12 01:48:08;;;;;;;17.38;11.93;;;;;;;10.52;55.75;101251.38;5287302;28;20074;-73
2022/03/12 01:50:40;;;;;;;17.38;12.32;;;;;;;10.42;57.46;101251.28;5285596;28;20466;-72
2022/03/12 01:53:11;;;;;;;17.23;12.32;;;;;;;10.38;58.55;101249.81;5287118;28;20465;-72
2022/03/12 01:55:43;;;;;;;17.25;12.70;;;;;;;10.33;58.40;101241.50;5286487;28;20477;-73
2022/03/12 01:58:14;;;;;;;16.00;12.20;;;;;;;10.24;57.65;101243.84;5288829;28;20024;-72
2022/03/12 02:00:49;;;;;;;15.77;12.25;;;;;;;10.29;57.87;101237.44;5291003;28;20031;-72
2022/03/12 02:03:23;;;;;;;17.20;12.70;;;;;;;10.22;59.32;101244.91;5289129;28;20031;-72
2022/03/12 02:05:56;;;;;;;16.42;12.15;;;;;;;10.24;56.47;101241.22;5290629;28;20033;-72
2022/03/12 02:08:28;;;;;;;18.15;12.68;;;;;;;10.28;57.05;101239.22;5292586;28;20111;-72
2022/03/12 02:11:00;;;;;;;15.27;11.98;;;;;;;10.29;56.40;101237.44;5288950;28;20108;-71
2022/03/12 02:13:32;;;;;;;16.25;11.45;;;;;;;10.31;57.89;101238.19;5289130;28;20122;-72
2022/03/12 02:16:08;;;;;;;15.82;11.90;;;;;;;10.37;56.77;101245.53;5291940;28;20392;-72
2022/03/12 02:18:46;;;;;;;15.25;12.52;;;;;;;10.43;55.25;101232.81;5290653;28;20059;-72
2022/03/12 02:21:38;;;;;;;15.88;11.98;;;;;;;10.52;54.95;101243.50;5290753;28;20090;-72
2022/03/12 02:24:12;;;;;;;17.25;12.13;;;;;;;10.17;56.20;101245.25;5289323;28;20035;-72
2022/03/12 02:26:45;;;;;;;15.60;11.45;;;;;;;10.20;55.68;101241.59;5291246;28;20358;-72
2022/03/12 02:29:22;;;;;;;;;;;;;;;10.58;54.76;101235.19;5289500;28;20024;-72
2022/03/12 02:32:00;;;;;;;15.57;10.85;;;;;;;10.27;56.72;101248.06;5289425;28;20292;-71
2022/03/12 02:34:38;;;;;;;13.43;10.77;;;;;;;10.24;57.18;101249.06;5291155;28;20056;-72
2022/03/12 02:37:11;;;;;;;15.93;11.88;;;;;;;10.24;57.78;101251.69;5290822;28;20027;-71
2022/03/12 02:39:42;;;;;;;12.98;10.63;;;;;;;10.26;58.54;101262.06;5277669;28;20373;-73
2022/03/12 02:42:14;;;;;;;16.42;11.57;;;;;;;10.21;59.05;101251.09;5278629;28;20434;-72
2022/03/12 02:44:48;;;;;;;16.98;11.38;;;;;;;10.23;59.75;101263.13;5291872;28;20024;-72
2022/03/12 02:47:27;;;;;;;17.45;11.32;;;;;;;10.28;59.29;101259.34;5290870;28;20480;-72
2022/03/12 02:50:03;;;;;;;15.65;11.80;;;;;;;10.19;59.93;101272.19;5287067;28;20084;-72
2022/03/12 02:52:41;;;;;;;15.98;11.15;;;;;;;10.24;59.70;101263.97;5291151;28;20039;-72
2022/03/12 02:55:16;;;;;;;17.02;11.45;;;;;;;10.20;59.56;101279.06;5290018;28;20028;-71
2022/03/12 02:57:48;;;;;;;13.73;10.55;;;;;;;10.18;59.82;101277.50;5277283;28;20024;-73
2022/03/12 03:00:20;;;;;;;14.57;10.85;;;;;;;10.17;59.69;101281.09;5276539;28;20401;-72
2022/03/12 03:02:54;;;;;;;14.70;10.77;;;;;;;10.15;60.61;101281.22;5290107;28;20026;-72
2022/03/12 03:08:10;;;;;;;15.63;11.93;;;;;;;10.10;60.67;101272.03;5287640;28;20035;-73
2022/03/12 03:10:43;;;;;;;15.45;11.52;;;;;;;10.03;60.27;101268.19;5287630;28;20537;-72
2022/03/12 03:13:18;;;;;;;15.73;11.25;;;;;;;9.99;60.36;101276.28;5290490;28;20476;-73
2022/03/12 03:15:53;;;;;;;18.42;12.13;;;;;;;9.91;61.31;101281.25;5277038;28;20095;-72
2022/03/12 03:18:27;;;;;;;15.73;10.63;;;;;;;9.87;61.39;101286.84;5287971;28;20028;-72
2022/03/12 03:21:04;;;;;;;14.30;11.02;;;;;;;9.81;62.86;101282.06;5286636;28;20028;-72
2022/03/12 03:23:36;;;;;;;13.68;10.57;;;;;;;9.74;62.48;101281.69;5287404;28;20028;-72
2022/03/12 03:26:07;;;;;;;15.57;10.93;;;;;;;9.72;62.93;101286.19;5286799;28;20023;-72
2022/03/12 03:28:38;;;;;;;13.45;11.02;;;;;;;9.69;63.08;101282.03;5285202;28;20238;-73
2022/03/12 03:31:10;;;;;;;17.48;11.85;;;;;;;9.68;63.46;101282.16;5289393;28;20020;-72
2022/03/12 03:33:41;;;;;;;14.70;10.82;;;;;;;9.62;65.78;101283.44;5290534;28;20027;-72
2022/03/12 03:36:13;;;;;;;11.95;9.88;;;;;;;9.62;66.51;101290.44;5287307;28;20551;-72
2022/03/12 03:38:45;;;;;;;16.30;9.15;;;;;;;9.59;68.45;101298.53;5289607;28;20451;-72
2022/03/12 03:41:16;;;;;;;10.95;8.90;;;;;;;9.59;69.65;101295.91;5290506;28;20577;-73
2022/03/12 03:43:48;;;;;;;11.38;8.80;;;;;;;9.57;71.08;101296.00;5287479;28;20058;-72
2022/03/12 03:46:22;;;;;;;14.13;9.13;;;;;;;9.56;72.21;101301.38;5275580;28;20024;-72
2022/03/12 03:48:54;;;;;;;11.70;8.20;;;;;;;9.52;72.82;101295.53;5288283;28;20047;-72
2022/03/12 03:51:26;;;;;;;11.00;8.35;;;;;;;9.55;72.76;101297.91;5288533;28;20514;-72
2022/03/12 03:53:57;;;;;;;12.73;9.70;;;;;;;9.52;72.59;101307.78;5290456;28;20072;-74
2022/03/12 03:56:28;;;;;;;13.90;8.52;;;;;;;9.48;72.55;101307.16;5286136;28;20031;-72
2022/03/12 03:59:00;;;;;;;12.88;8.93;;;;;;;9.45;72.46;101302.16;5287303;28;20031;-72
2022/03/12 04:01:32;;;;;;;13.02;8.73;;;;;;;9.43;73.98;101301.41;5274876;28;20047;-71
2022/03/12 04:04:03;;;;;;;10.73;8.38;;;;;;;9.41;74.20;101313.78;5292973;28;20390;-71
2022/03/12 04:06:38;;;;;;;10.57;8.50;;;;;;;9.42;73.98;101308.44;5287103;28;20123;-72
2022/03/12 04:09:10;;;;;;;10.25;8.63;;;;;;;9.38;74.79;101311.38;5272932;28;20024;-72
2022/03/12 04:11:43;;;;;;;12.70;8.73;;;;;;;9.35;75.27;101322.06;5287977;28;20016;-72
2022/03/12 04:14:14;;;;;;;10.45;8.07;;;;;;;9.35;75.09;101316.81;5286237;28;20050;-72
2022/03/12 04:16:45;;;;;;;9.68;8.05;;;;;;;9.27;75.45;101318.22;5287807;28;20567;-72
2022/03/12 04:19:17;;;;;;;11.10;8.35;;;;;;;9.29;75.67;101323.34;5285728;28;20342;-72
2022/03/12 04:21:48;;;;;;;9.43;8.05;;;;;;;9.23;76.16;101323.78;5288405;28;20495;-72
2022/03/12 04:24:22;;;;;;;10.38;7.75;;;;;;;9.19;77.31;101327.56;5285457;28;20020;-72
2022/03/12 04:26:54;;;;;;;10.52;7.68;;;;;;;9.15;79.40;101323.50;5285213;28;20034;-72
2022/03/12 04:29:25;;;;;;;9.77;7.18;;;;;;;9.15;79.77;101331.31;5272872;28;20023;-71
2022/03/12 04:31:56;;;;;;;9.18;6.93;;;;;;;9.12;81.18;101339.38;5286488;28;20023;-72
2022/03/12 04:34:27;;;;;;;8.63;6.60;;;;;;;9.09;81.41;101335.22;5285652;28;20028;-72
2022/03/12 04:36:59;;;;;;;7.88;6.57;;;;;;;9.09;81.83;101334.38;5289304;28;20155;-72
2022/03/12 04:39:30;;;;;;;8.85;6.72;;;;;;;9.05;82.57;101332.91;5269281;28;20481;-72
2022/03/12 04:42:02;;;;;;;7.93;6.15;;;;;;;9.01;82.99;101338.34;5287747;28;20377;-72
2022/03/12 04:44:34;;;;;;;8.13;6.40;;;;;;;9.01;85.54;101338.34;5287162;28;20070;-72
2022/03/12 04:47:10;;;;;;;8.27;6.85;;;;;;;9.05;86.51;101333.75;5287263;28;20408;-72
2022/03/12 04:49:41;;;;;;;10.52;5.80;;;;;;;8.90;86.79;101326.97;5283605;28;20070;-72
2022/03/12 04:52:13;;;;;;;8.98;6.40;;;;;;;8.99;88.89;101331.59;5289352;28;20016;-72
2022/03/12 04:54:45;;;;;;;6.70;5.60;;;;;;;8.94;89.12;101334.53;5285644;28;20055;-72
2022/03/12 04:57:17;;;;;;;7.35;5.13;;;;;;;8.90;90.81;101337.44;5288554;28;20427;-72
2022/03/12 04:59:48;;;;;;;6.75;5.70;;;;;;;8.90;91.17;101343.53;5287532;28;20027;-71
2022/03/12 05:02:20;;;;;;;6.53;5.07;;;;;;;8.91;93.36;101339.13;5266215;28;20024;-72
2022/03/12 05:04:51;;;;;;;6.47;5.45;;;;;;;8.89;94.75;101335.78;5286606;28;20073;-72
2022/03/12 05:07:26;;;;;;;7.03;5.25;;;;;;;8.94;95.43;101341.50;5287982;28;20481;-71
2022/03/12 05:09:57;;;;;;;7.20;4.82;;;;;;;8.88;96.53;101340.16;5287435;28;20073;-73
2022/03/12 05:12:29;;;;;;;6.93;5.07;;;;;;;8.92;96.77;101338.19;5268916;28;20031;-71
2022/03/12 05:15:02;;;;;;;6.40;4.95;;;;;;;8.91;97.02;101350.41;5286724;28;20020;-71
2022/03/12 05:17:38;;;;;;;9.95;5.13;;;;;;;8.94;97.74;101350.19;5288703;28;20016;-71
2022/03/12 05:20:11;;;;;;;6.32;4.68;;;;;;;8.91;99.07;101350.41;5287294;28;20032;-71
2022/03/12 05:22:42;;;;;;;6.17;4.93;;;;;;;8.93;99.80;101356.34;5286201;28;20036;-72
2022/03/12 05:25:15;;;;;;;5.75;4.88;;;;;;;8.96;99.73;101365.75;5286474;28;20286;-71
2022/03/12 05:27:51;;;;;;;6.53;4.70;;;;;;;8.97;100.00;101364.81;5288285;28;20020;-71
2022/03/12 05:30:23;;;;;;;6.00;4.78;;;;;;;8.94;100.00;101360.66;5285841;28;20389;-72
2022/03/12 05:32:55;;;;;;;8.45;5.60;;;;;;;8.98;100.00;101369.13;5287769;28;20031;-71
2022/03/12 05:35:26;;;;;;;6.68;5.35;;;;;;;8.92;100.00;101372.16;5293481;28;20020;-71
2022/03/12 05:37:58;;;;;;;5.97;4.53;;;;;;;8.89;100.00;101373.19;5290718;28;20033;-72
2022/03/12 05:40:30;;;;;;;7.82;5.47;;;;;;;8.87;100.00;101376.88;5275054;28;20045;-72
2022/03/12 05:43:01;;;;;;;6.38;5.50;;;;;;;8.87;100.00;101374.25;5287900;28;20836;-71
2022/03/12 05:45:33;;;;;;;6.03;4.53;;;;;;;8.88;100.00;101375.91;5289879;28;20020;-71
2022/03/12 05:48:08;;;;;;;7.07;5.00;;;;;;;8.84;100.00;101380.50;5291101;28;20040;-72
2022/03/12 05:50:41;;;;;;;6.13;4.85;;;;;;;8.72;100.00;101387.41;5290933;28;20073;-72
2022/03/12 05:53:18;;;;;;;7.10;5.90;;;;;;;8.71;100.00;101385.75;5290961;28;20021;-73
2022/03/12 05:55:49;;;;;;;6.57;5.05;;;;;;;8.69;100.00;101394.63;5291756;28;20027;-72
2022/03/12 05:58:21;;;;;;;8.18;6.45;;;;;;;8.61;100.00;101389.94;5287494;28;20461;-72
2022/03/12 06:00:54;;;;;;;8.45;6.90;;;;;;;8.57;100.00;101391.06;5293269;28;20040;-72
2022/03/12 06:03:25;;;;;;;8.55;6.82;;;;;;;8.52;100.00;101385.31;5290304;28;20246;-72
2022/03/12 06:05:59;;;;;;;9.00;6.45;;;;;;;8.51;100.00;101387.09;5291060;28;20024;-71
2022/03/12 06:08:31;;;;;;;9.70;7.00;;;;;;;8.48;100.00;101389.91;5291445;28;20035;-72
2022/03/12 06:11:02;;;;;;;8.23;6.53;;;;;;;8.45;100.00;101390.13;5289605;28;20023;-72
2022/03/12 06:13:34;;;;;;;9.70;7.20;;;;;;;8.43;100.00;101388.56;5289893;28;20020;-72
2022/03/12 06:16:06;;;;;;;8.30;6.80;;;;;;;8.42;100.00;101392.09;5292957;28;20020;-71
2022/03/12 06:18:38;;;;;;;8.57;6.45;;;;;;;8.38;100.00;101396.69;5288143;28;20024;-72
2022/03/12 06:21:09;;;;;;;8.05;6.45;;;;;;;8.42;100.00;101398.16;5291414;28;20024;-71
2022/03/12 06:23:41;;;;;;;7.90;6.82;;;;;;;8.39;100.00;101394.91;5288836;28;20485;-72
2022/03/12 06:26:16;;;;;;;7.35;5.85;;;;;;;8.39;100.00;101400.97;5289626;28;20024;-72
2022/03/12 06:28:47;;;;;;;9.10;6.80;;;;;;;8.41;100.00;101406.09;5289334;28;20104;-72
2022/03/12 06:31:19;;;;;;;7.75;6.32;;;;;;;8.44;100.00;101409.31;5288497;28;20019;-72
2022/03/12 06:33:50;;;;;;;8.57;6.63;;;;;;;8.42;100.00;101411.22;5290277;28;20035;-72
2022/03/12 06:36:22;;;;;;;7.53;6.40;;;;;;;8.47;100.00;101414.34;5290909;28;20461;-72
2022/03/12 06:38:53;;;;;;;8.98;7.25;;;;;;;8.46;100.00;101411.84;5291142;28;20024;-72
2022/03/12 06:41:25;;;;;;;8.50;7.18;;;;;;;8.47;100.00;101410.91;5292136;28;20063;-71
2022/03/12 06:43:57;;;;;;;9.25;6.93;;;;;;;8.53;100.00;101418.34;5286717;28;20028;-72
2022/03/12 06:46:29;;;;;;;9.82;6.82;;;;;;;8.53;100.00;101419.19;5289781;28;20031;-72
2022/03/12 06:49:00;;;;;;;8.40;6.60;;;;;;;8.56;100.00;101420.75;5287975;28;20032;-71
2022/03/12 06:51:32;;;;;;;9.02;7.00;;;;;;;8.62;100.00;101429.94;5290235;28;20430;-72
2022/03/12 06:54:04;;;;;;;9.93;7.13;;;;;;;8.63;100.00;101426.38;5290127;28;20089;-70
2022/03/12 06:56:39;;;;;;;9.55;6.85;;;;;;;8.65;100.00;101432.34;5289158;28;20128;-72
2022/03/12 06:59:10;;;;;;;8.50;6.47;;;;;;;8.67;100.00;101433.91;5288037;28;20032;-72
2022/03/12 07:01:41;;;;;;;8.50;6.43;;;;;;;8.72;100.00;101433.63;5286114;28;20024;-72
2022/03/12 07:04:13;;;;;;;8.18;7.07;;;;;;;8.79;100.00;101434.88;5284714;28;20475;-72
2022/03/12 07:06:44;;;;;;;8.02;6.40;;;;;;;8.82;100.00;101434.63;5289899;28;20582;-72
2022/03/12 07:09:17;;;;;;;7.85;6.78;;;;;;;8.88;100.00;101441.25;5288169;28;20055;-71
2022/03/12 07:11:48;;;;;;;8.73;6.40;;;;;;;8.93;100.00;101439.13;5288115;28;20028;-71
2022/03/12 07:14:19;;;;;;;9.98;6.25;;;;;;;8.97;100.00;101436.19;5293174;28;20051;-72
2022/03/12 07:16:51;;;;;;;8.82;6.45;;;;;;;9.01;100.00;101453.34;5288830;28;20032;-72
2022/03/12 07:19:23;;;;;;;7.88;5.90;;;;;;;9.00;100.00;101437.78;5289607;28;20020;-72
2022/03/12 07:21:54;;;;;;;9.57;5.88;;;;;;;9.09;100.00;101446.75;5290351;28;20556;-71
2022/03/12 07:24:25;;;;;;;8.13;6.07;;;;;;;9.13;100.00;101451.69;5289495;28;20106;-71
2022/03/12 07:26:57;;;;;;;8.02;5.95;;;;;;;9.16;100.00;101459.31;5290638;28;20052;-72
2022/03/12 07:29:31;;;;;;;11.10;6.70;;;;;;;9.17;100.00;101455.78;5290161;28;20027;-71
2022/03/12 07:32:02;;;;;;;9.57;6.82;;;;;;;9.20;100.00;101458.16;5288212;28;20451;-72
2022/03/12 07:34:34;;;;;;;7.75;6.75;;;;;;;9.27;100.00;101469.84;5287094;28;20115;-72
2022/03/12 07:37:08;;;;;;;8.52;7.18;;;;;;;9.35;100.00;101473.72;5292193;28;20028;-72
2022/03/12 07:39:40;;;;;;;7.50;6.25;;;;;;;9.41;100.00;101484.59;5286408;28;20048;-71
2022/03/12 07:42:11;;;;;;;8.02;6.63;;;;;;;9.46;100.00;101482.47;5287379;28;20038;-72
2022/03/12 07:44:43;;;;;;;8.63;6.80;;;;;;;9.54;100.00;101478.50;5287596;28;20489;-73
2022/03/12 07:47:14;;;;;;;7.47;6.30;;;;;;;9.61;100.00;101485.81;5275049;28;20035;-72
2022/03/12 07:49:45;;;;;;;8.30;6.57;;;;;;;9.68;100.00;101484.44;5288611;28;20548;-72
2022/03/12 07:52:17;;;;;;;10.38;6.97;;;;;;;9.75;100.00;101487.47;5270595;28;20020;-72
2022/03/12 07:54:48;;;;;;;7.65;6.43;;;;;;;9.83;100.00;101486.91;5288163;28;20105;-72
2022/03/12 07:57:19;;;;;;;7.97;6.20;;;;;;;9.91;100.00;101497.66;5289205;28;20685;-72
2022/03/12 07:59:51;;;;;;;8.93;7.05;;;;;;;9.96;100.00;101490.31;5287757;28;20024;-72
2022/03/12 08:02:22;;;;;;;9.80;6.90;;;;;;;10.00;100.00;101494.41;5288551;28;20470;-72
2022/03/12 08:04:53;;;;;;;8.15;6.53;;;;;;;10.06;100.00;101496.56;5287271;28;20476;-72
2022/03/12 08:07:26;;;;;;;8.88;7.35;;;;;;;10.11;99.02;101499.66;5273174;28;20110;-73
2022/03/12 08:09:59;;;;;;;7.83;6.73;;;;;;;10.16;98.44;101505.44;5282843;28;20028;-72
2022/03/12 08:12:31;;;;;;;7.95;7.05;;;;;;;10.19;98.06;101504.34;5278981;28;20305;-71
2022/03/12 08:15:05;;;;;;;9.13;7.35;;;;;;;10.26;97.46;101515.25;5285122;28;20097;-72
2022/03/12 08:17:37;;;;;;;9.48;7.10;;;;;;;10.27;96.92;101520.41;5273425;28;20113;-73
2022/03/12 08:20:09;;;;;;;7.25;6.40;;;;;;;10.32;96.68;101518.28;5289890;28;20107;-72
2022/03/12 08:22:45;;;;;;;8.88;6.65;;;;;;;10.39;96.30;101522.13;5289562;28;20027;-72
2022/03/12 08:25:16;;;;;;;8.60;6.68;;;;;;;10.42;96.34;101521.91;5290921;28;20567;-72
2022/03/12 08:27:47;;;;;;;8.27;6.78;;;;;;;10.52;95.95;101523.84;5287610;28;20020;-72
2022/03/12 08:30:20;;;;;;;9.05;6.57;;;;;;;10.58;95.55;101532.09;5285353;28;20410;-73
2022/03/12 08:32:52;;;;;;;10.48;6.53;;;;;;;10.69;94.28;101534.75;5289711;28;20096;-72
2022/03/12 08:35:24;;;;;;;7.22;6.10;;;;;;;10.78;93.83;101532.38;5287714;28;20130;-73
2022/03/12 08:37:55;;;;;;;7.85;5.72;;;;;;;10.88;93.07;101541.25;5288926;28;20118;-73
2022/03/12 08:40:27;;;;;;;8.07;6.53;;;;;;;10.93;92.41;101544.34;5288845;28;20121;-72
2022/03/12 08:42:58;;;;;;;6.95;6.10;;;;;;;10.99;92.34;101541.28;5285181;28;20124;-72
2022/03/12 08:45:31;;;;;;;8.27;6.05;;;;;;;11.14;92.49;101545.34;5288471;28;20032;-72
2022/03/12 08:48:02;;;;;;;8.45;6.47;;;;;;;11.20;90.96;101544.88;5289169;28;20103;-72
2022/03/12 08:50:34;;;;;;;7.60;5.88;;;;;;;11.29;88.87;101555.59;5286656;28;20541;-72
2022/03/12 08:53:05;;;;;;;7.05;4.82;;;;;;;11.40;87.88;101547.75;5287768;28;20089;-72
2022/03/12 08:55:37;;;;;;;7.68;4.75;;;;;;;11.48;85.76;101562.91;5287958;28;20031;-73
2022/03/12 08:58:09;;;;;;;6.03;4.03;;;;;;;11.61;86.10;101553.13;5289501;28;20032;-73
2022/03/12 09:00:42;;;;;;;7.25;4.55;;;;;;;11.61;84.31;101555.75;5283186;28;20024;-73
2022/03/12 09:03:13;;;;;;;7.35;4.25;;;;;;;11.71;83.68;101561.16;5287192;28;20032;-73
2022/03/12 09:05:45;;;;;;;6.80;4.43;;;;;;;11.71;82.17;101561.97;5275906;28;20039;-73
2022/03/12 09:08:16;;;;;;;6.00;4.32;;;;;;;11.80;81.13;101556.00;5285189;28;20294;-72
2022/03/12 09:10:48;;;;;;;8.10;4.18;;;;;;;11.84;80.50;101554.81;5285436;28;20115;-73
2022/03/12 09:13:19;;;;;;;6.55;3.90;;;;;;;11.90;79.71;101562.22;5285494;28;20039;-73
2022/03/12 09:15:51;;;;;;;7.72;4.13;;;;;;;11.98;79.14;101556.38;5285611;28;20369;-73
2022/03/12 09:18:23;;;;;;;8.68;3.95;;;;;;;12.04;78.71;101558.50;5287702;28;20416;-73
2022/03/12 09:20:54;;;;;;;6.38;3.95;;;;;;;12.06;77.69;101566.25;5286672;28;20017;-73
2022/03/12 09:23:25;;;;;;;6.28;3.67;;;;;;;12.04;76.59;101561.13;5285270;28;20097;-72
2022/03/12 09:25:57;;;;;;;5.78;3.63;;;;;;;12.20;76.67;101563.38;5285738;28;20028;-72
2022/03/12 09:28:29;;;;;;;6.07;3.45;;;;;;;12.22;75.16;101564.06;5286971;28;20024;-73
2022/03/12 09:31:00;;;;;;;6.15;3.40;;;;;;;12.28;75.03;101562.75;5272743;28;20024;-72
2022/03/12 09:33:32;;;;;;;6.63;3.10;;;;;;;12.25;73.73;101553.31;5284285;28;20038;-73
2022/03/12 09:36:03;;;;;;;6.07;3.50;;;;;;;12.36;72.67;101562.97;5286187;28;20106;-73
2022/03/12 09:38:37;;;;;;;8.63;3.20;;;;;;;12.57;72.78;101570.88;5286807;28;20467;-73
2022/03/12 09:41:08;;;;;;;10.10;3.30;;;;;;;12.57;70.41;101566.47;5285494;28;20045;-72
2022/03/12 09:43:41;;;;;;;6.38;2.60;;;;;;;12.73;69.38;101576.59;5287307;28;20483;-73
2022/03/12 09:46:12;;;;;;;11.60;2.90;;;;;;;12.73;68.51;101560.81;5286544;28;20029;-73
2022/03/12 09:48:44;;;;;;;7.03;2.85;;;;;;;12.82;67.58;101559.19;5265721;28;20017;-72
2022/03/12 09:51:15;;;;;;;5.15;2.47;;;;;;;12.63;67.13;101539.69;5285446;28;20021;-73
2022/03/12 09:53:47;;;;;;;5.40;2.50;;;;;;;12.74;67.05;101575.63;5284842;28;20085;-73
2022/03/12 09:56:20;;;;;;;7.05;2.78;;;;;;;12.64;67.44;101567.63;5284018;28;20068;-72
2022/03/12 09:58:51;;;;;;;5.80;2.92;;;;;;;12.74;67.80;101574.78;5286174;28;20146;-73
2022/03/12 10:01:23;;;;;;;7.55;2.72;;;;;;;12.78;67.77;101581.47;5284316;28;20043;-73
2022/03/12 10:03:54;;;;;;;8.48;2.75;;;;;;;12.84;67.38;101573.91;5286087;28;20069;-73
2022/03/12 10:06:26;;;;;;;6.40;2.42;;;;;;;12.91;67.20;101580.28;5285136;28;20772;-73
2022/03/12 10:08:57;;;;;;;12.60;3.05;;;;;;;12.95;66.68;101575.63;5284115;28;20396;-72
2022/03/12 10:11:29;;;;;;;6.72;2.85;;;;;;;12.98;66.34;101570.09;5287524;28;20453;-73
2022/03/12 10:14:00;;;;;;;5.95;2.42;;;;;;;13.17;66.03;101576.47;5284333;28;20501;-73
2022/03/12 10:16:31;;;;;;;6.35;2.50;;;;;;;13.36;65.74;101589.75;5286653;28;20166;-72
2022/03/12 10:19:03;;;;;;;6.82;2.33;;;;;;;13.29;64.51;101576.28;5288495;28;20099;-72
2022/03/12 10:21:42;;;;;;;7.45;2.88;;;;;;;13.28;63.84;101572.00;5277495;28;20519;-73
2022/03/12 10:24:14;;;;;;;4.65;2.28;;;;;;;13.34;63.78;101589.06;5290617;28;20500;-74
2022/03/12 10:26:46;;;;;;;6.43;2.30;;;;;;;13.47;63.77;101580.97;5293842;28;20601;-74
2022/03/12 10:29:19;;;;;;;6.95;2.80;;;;;;;13.35;62.82;101574.94;5291756;28;20161;-73
2022/03/12 10:31:50;;;;;;;5.85;2.30;;;;;;;13.41;62.21;101571.81;5293088;28;20019;-73
2022/03/12 10:34:24;;;;;;;6.03;2.05;;;;;;;13.41;62.74;101573.56;5293649;28;20036;-73
2022/03/12 10:36:59;;;;;;;5.95;2.72;;;;;;;13.43;62.72;101574.28;5279265;28;20035;-73
2022/03/12 10:39:32;;;;;;;12.05;3.03;;;;;;;13.56;61.93;101575.75;5293525;28;20075;-73
2022/03/12 10:42:07;;;;;;;5.22;2.25;;;;;;;13.66;61.33;101565.25;5291933;28;20028;-74
2022/03/12 10:44:40;;;;;;;5.05;2.15;;;;;;;13.72;60.93;101584.97;5294349;28;20370;-73
2022/03/12 10:47:19;;;;;;;6.90;2.65;;;;;;;13.87;60.82;101579.19;5297443;28;20599;-72
2022/03/12 10:49:58;;;;;;;6.72;2.65;;;;;;;14.10;60.47;101579.00;5289879;28;20413;-73
2022/03/12 10:52:32;;;;;;;6.65;2.42;;;;;;;14.17;59.90;101574.00;5289550;28;20024;-73
2022/03/12 10:55:17;;;;;;;8.27;2.20;;;;;;;14.50;59.83;101567.56;5289560;28;20024;-72
2022/03/12 10:58:09;;;;;;;7.40;2.30;;;;;;;14.58;58.05;101579.09;5289941;28;20056;-72
2022/03/12 11:00:59;;;;;;;5.32;2.22;;;;;;;14.72;58.58;101566.44;5294874;28;20385;-72
2022/03/12 11:03:35;;;;;;;7.25;2.25;;;;;;;14.67;56.61;101571.31;5296339;28;21125;-72
2022/03/12 11:06:07;;;;;;;7.10;2.35;;;;;;;14.56;56.33;101578.38;5296401;28;20024;-73
2022/03/12 11:08:38;;;;;;;5.45;1.88;;;;;;;14.73;56.04;101576.03;5297276;28;20027;-73
2022/03/12 11:11:13;;;;;;;5.97;1.88;;;;;;;14.82;55.57;101585.75;5295245;28;20024;-73
2022/03/12 11:13:50;;;;;;;6.75;2.05;;;;;;;14.78;54.55;101574.66;5290003;28;20035;-72
2022/03/12 11:16:24;;;;;;;5.60;1.70;;;;;;;14.75;53.96;101587.28;5292817;28;20229;-72
2022/03/12 11:18:59;;;;;;;6.10;1.80;;;;;;;14.86;54.40;101581.88;5296060;28;20250;-72
2022/03/12 11:21:39;;;;;;;7.32;2.00;;;;;;;14.86;54.29;101587.13;5295795;28;20043;-72
2022/03/12 11:24:22;;;;;;;7.63;2.20;;;;;;;14.93;53.57;101584.78;5296612;28;20031;-72
2022/03/12 11:26:56;;;;;;;4.87;1.90;;;;;;;15.08;53.41;101580.72;5296404;28;20119;-73
2022/03/12 11:29:29;;;;;;;5.70;1.80;;;;;;;15.12;51.64;101581.28;5295076;28;20043;-73
2022/03/12 11:32:04;;;;;;;5.75;2.00;;;;;;;15.18;51.92;101576.25;5290244;28;20628;-72
2022/03/12 11:34:40;;;;;;;6.95;1.92;;;;;;;15.32;52.10;101583.72;5286348;28;20151;-72
2022/03/12 11:37:14;;;;;;;6.43;2.08;;;;;;;15.37;51.92;101580.66;5270504;28;20028;-73
2022/03/12 11:39:47;;;;;;;;;;;;;;;15.94;50.50;101581.41;5291398;28;20076;-73
2022/03/12 11:42:32;;;;;;;8.10;2.00;;;;;;;15.71;50.52;101573.06;5294006;28;19919;-69
2022/03/12 11:45:09;;;;;;;5.50;1.80;;;;;;;15.67;50.14;101573.50;5296264;28;20118;-72
2022/03/12 11:47:44;;;;;;;8.95;2.10;;;;;;;15.60;48.88;101572.38;5290872;28;20020;-72
2022/03/12 11:50:19;;;;;;;6.07;2.08;;;;;;;15.64;49.19;101576.38;5294405;28;20024;-74